sensor_id;sensor_type;location;lat;lon;timestamp;pressure;altitude;pressure_sealevel;temperature;humidity
47556;BME280;33291;46.222;26.460;2022-09-09T00:04:28;96626.75;;;13.21;100.00
47556;BME280;33291;46.222;26.460;2022-09-09T00:12:33;96620.38;;;13.15;100.00
47556;BME280;33291;46.222;26.460;2022-09-09T00:17:42;96616.09;;;13.14;100.00
47556;BME280;33291;46.222;26.460;2022-09-09T00:25:39;96610.81;;;13.06;100.00
47556;BME280;33291;46.222;26.460;2022-09-09T00:28:17;96612.28;;;13.08;100.00
47556;BME280;33291;46.222;26.460;2022-09-09T00:30:43;96616.72;;;13.08;100.00
47556;BME280;33291;46.222;26.460;2022-09-09T00:33:15;96582.38;;;12.85;100.00
47556;BME280;33291;46.222;26.460;2022-09-09T00:35:47;96615.06;;;13.07;100.00
47556;BME280;33291;46.222;26.460;2022-09-09T00:38:24;96606.31;;;12.98;100.00
47556;BME280;33291;46.222;26.460;2022-09-09T00:40:53;96603.84;;;12.96;100.00
47556;BME280;33291;46.222;26.460;2022-09-09T00:43:31;96606.78;;;12.93;100.00
47556;BME280;33291;46.222;26.460;2022-09-09T00:49:04;96609.13;;;12.78;100.00
47556;BME280;33291;46.222;26.460;2022-09-09T00:56:54;96603.00;;;12.70;100.00
47556;BME280;33291;46.222;26.460;2022-09-09T01:05:11;96597.31;;;12.74;100.00
47556;BME280;33291;46.222;26.460;2022-09-09T01:07:40;96602.84;;;12.71;100.00
47556;BME280;33291;46.222;26.460;2022-09-09T01:10:41;96606.56;;;12.69;100.00
47556;BME280;33291;46.222;26.460;2022-09-09T01:13:20;96605.06;;;12.66;100.00
47556;BME280;33291;46.222;26.460;2022-09-09T01:15:47;96587.97;;;12.54;100.00
47556;BME280;33291;46.222;26.460;2022-09-09T01:18:17;96601.28;;;12.60;100.00
47556;BME280;33291;46.222;26.460;2022-09-09T01:29:01;96590.97;;;12.41;100.00
47556;BME280;33291;46.222;26.460;2022-09-09T01:31:29;96591.72;;;12.51;100.00
47556;BME280;33291;46.222;26.460;2022-09-09T01:33:57;96581.41;;;12.50;100.00
47556;BME280;33291;46.222;26.460;2022-09-09T01:36:34;96594.19;;;12.53;100.00
47556;BME280;33291;46.222;26.460;2022-09-09T01:39:03;96582.97;;;12.42;100.00
47556;BME280;33291;46.222;26.460;2022-09-09T01:41:28;96586.78;;;12.48;100.00
47556;BME280;33291;46.222;26.460;2022-09-09T01:43:55;96593.63;;;12.49;100.00
47556;BME280;33291;46.222;26.460;2022-09-09T01:46:21;96584.63;;;12.43;100.00
47556;BME280;33291;46.222;26.460;2022-09-09T01:48:49;96599.84;;;12.48;100.00
47556;BME280;33291;46.222;26.460;2022-09-09T01:51:15;96604.38;;;12.46;100.00
47556;BME280;33291;46.222;26.460;2022-09-09T01:53:41;96608.00;;;12.45;100.00
47556;BME280;33291;46.222;26.460;2022-09-09T01:57:00;96609.63;;;12.46;100.00
47556;BME280;33291;46.222;26.460;2022-09-09T02:02:18;96584.38;;;12.37;100.00
47556;BME280;33291;46.222;26.460;2022-09-09T02:05:05;96600.59;;;12.40;100.00
47556;BME280;33291;46.222;26.460;2022-09-09T02:07:47;96585.47;;;12.34;100.00
47556;BME280;33291;46.222;26.460;2022-09-09T02:12:46;96592.06;;;12.38;100.00
47556;BME280;33291;46.222;26.460;2022-09-09T02:15:35;96591.09;;;12.39;100.00
47556;BME280;33291;46.222;26.460;2022-09-09T02:18:07;96583.72;;;12.35;100.00
47556;BME280;33291;46.222;26.460;2022-09-09T02:20:35;96584.97;;;12.31;100.00
47556;BME280;33291;46.222;26.460;2022-09-09T02:23:04;96574.06;;;12.17;100.00
47556;BME280;33291;46.222;26.460;2022-09-09T02:25:30;96604.22;;;12.30;100.00
47556;BME280;33291;46.222;26.460;2022-09-09T02:27:56;96587.88;;;12.27;100.00
47556;BME280;33291;46.222;26.460;2022-09-09T02:30:27;96578.69;;;12.23;100.00
47556;BME280;33291;46.222;26.460;2022-09-09T02:32:56;96584.53;;;12.35;100.00
47556;BME280;33291;46.222;26.460;2022-09-09T02:35:24;96585.28;;;12.27;100.00
47556;BME280;33291;46.222;26.460;2022-09-09T02:37:54;96577.94;;;12.13;100.00
47556;BME280;33291;46.222;26.460;2022-09-09T02:40:20;96584.28;;;12.11;100.00
47556;BME280;33291;46.222;26.460;2022-09-09T02:42:48;96578.91;;;12.12;100.00
47556;BME280;33291;46.222;26.460;2022-09-09T02:45:19;96588.47;;;12.21;100.00
47556;BME280;33291;46.222;26.460;2022-09-09T02:47:47;96582.81;;;12.26;100.00
47556;BME280;33291;46.222;26.460;2022-09-09T02:50:26;96582.50;;;12.29;100.00
47556;BME280;33291;46.222;26.460;2022-09-09T02:53:17;96578.09;;;12.30;100.00
47556;BME280;33291;46.222;26.460;2022-09-09T02:56:16;96572.22;;;12.27;100.00
47556;BME280;33291;46.222;26.460;2022-09-09T02:58:42;96576.06;;;12.23;100.00
47556;BME280;33291;46.222;26.460;2022-09-09T03:01:08;96573.31;;;12.25;100.00
47556;BME280;33291;46.222;26.460;2022-09-09T03:03:34;96570.47;;;12.18;100.00
47556;BME280;33291;46.222;26.460;2022-09-09T03:06:00;96572.31;;;12.08;100.00
47556;BME280;33291;46.222;26.460;2022-09-09T03:08:26;96570.13;;;12.13;100.00
47556;BME280;33291;46.222;26.460;2022-09-09T03:10:54;96574.50;;;12.13;100.00
47556;BME280;33291;46.222;26.460;2022-09-09T03:13:19;96577.34;;;12.19;100.00
47556;BME280;33291;46.222;26.460;2022-09-09T03:15:45;96581.44;;;12.22;100.00
47556;BME280;33291;46.222;26.460;2022-09-09T03:18:10;96570.78;;;12.15;100.00
47556;BME280;33291;46.222;26.460;2022-09-09T03:20:36;96555.00;;;12.07;100.00
47556;BME280;33291;46.222;26.460;2022-09-09T03:23:02;96565.56;;;12.15;100.00
47556;BME280;33291;46.222;26.460;2022-09-09T03:25:27;96554.59;;;12.12;100.00
47556;BME280;33291;46.222;26.460;2022-09-09T03:27:54;96553.75;;;12.11;100.00
47556;BME280;33291;46.222;26.460;2022-09-09T03:30:24;96555.41;;;12.12;100.00
47556;BME280;33291;46.222;26.460;2022-09-09T03:32:50;96567.50;;;12.13;100.00
47556;BME280;33291;46.222;26.460;2022-09-09T03:35:16;96561.44;;;12.13;100.00
47556;BME280;33291;46.222;26.460;2022-09-09T03:37:42;96558.81;;;12.13;100.00
47556;BME280;33291;46.222;26.460;2022-09-09T03:40:08;96556.75;;;12.16;100.00
47556;BME280;33291;46.222;26.460;2022-09-09T03:42:35;96552.50;;;12.15;100.00
47556;BME280;33291;46.222;26.460;2022-09-09T03:45:06;96539.75;;;12.12;100.00
47556;BME280;33291;46.222;26.460;2022-09-09T03:47:32;96529.88;;;12.06;100.00
47556;BME280;33291;46.222;26.460;2022-09-09T03:49:58;96535.19;;;12.14;100.00
47556;BME280;33291;46.222;26.460;2022-09-09T03:52:24;96534.22;;;12.15;100.00
47556;BME280;33291;46.222;26.460;2022-09-09T03:54:52;96527.94;;;12.08;100.00
47556;BME280;33291;46.222;26.460;2022-09-09T03:57:18;96542.50;;;12.11;100.00
47556;BME280;33291;46.222;26.460;2022-09-09T03:59:44;96527.41;;;12.04;100.00
47556;BME280;33291;46.222;26.460;2022-09-09T04:02:10;96515.47;;;12.02;100.00
47556;BME280;33291;46.222;26.460;2022-09-09T04:04:35;96522.41;;;12.11;100.00
47556;BME280;33291;46.222;26.460;2022-09-09T04:07:01;96523.69;;;12.07;100.00
47556;BME280;33291;46.222;26.460;2022-09-09T04:09:26;96530.41;;;12.09;100.00
47556;BME280;33291;46.222;26.460;2022-09-09T04:11:52;96535.19;;;12.14;100.00
47556;BME280;33291;46.222;26.460;2022-09-09T04:14:19;96533.94;;;12.18;100.00
47556;BME280;33291;46.222;26.460;2022-09-09T04:16:45;96531.31;;;12.18;100.00
47556;BME280;33291;46.222;26.460;2022-09-09T04:19:12;96509.00;;;12.06;100.00
47556;BME280;33291;46.222;26.460;2022-09-09T04:21:40;96537.50;;;12.17;100.00
47556;BME280;33291;46.222;26.460;2022-09-09T04:24:07;96526.28;;;12.07;100.00
47556;BME280;33291;46.222;26.460;2022-09-09T04:26:34;96543.00;;;12.14;100.00
47556;BME280;33291;46.222;26.460;2022-09-09T04:29:02;96545.63;;;12.14;100.00
47556;BME280;33291;46.222;26.460;2022-09-09T04:31:27;96526.28;;;12.07;100.00
47556;BME280;33291;46.222;26.460;2022-09-09T04:33:53;96538.34;;;12.18;100.00
47556;BME280;33291;46.222;26.460;2022-09-09T04:36:18;96540.50;;;12.22;100.00
47556;BME280;33291;46.222;26.460;2022-09-09T04:38:45;96533.34;;;12.24;100.00
47556;BME280;33291;46.222;26.460;2022-09-09T04:41:11;96516.41;;;12.29;100.00
47556;BME280;33291;46.222;26.460;2022-09-09T04:43:38;96527.72;;;12.37;100.00
47556;BME280;33291;46.222;26.460;2022-09-09T04:46:04;96525.25;;;12.36;100.00
47556;BME280;33291;46.222;26.460;2022-09-09T04:48:30;96536.31;;;12.48;100.00
47556;BME280;33291;46.222;26.460;2022-09-09T04:50:57;96538.63;;;12.51;100.00
47556;BME280;33291;46.222;26.460;2022-09-09T04:53:23;96534.91;;;12.53;100.00
47556;BME280;33291;46.222;26.460;2022-09-09T04:55:49;96536.59;;;12.62;100.00
47556;BME280;33291;46.222;26.460;2022-09-09T04:58:14;96541.03;;;12.62;100.00
47556;BME280;33291;46.222;26.460;2022-09-09T05:00:40;96544.81;;;12.68;100.00
47556;BME280;33291;46.222;26.460;2022-09-09T05:03:06;96542.88;;;12.70;100.00
47556;BME280;33291;46.222;26.460;2022-09-09T05:05:33;96548.31;;;12.76;100.00
47556;BME280;33291;46.222;26.460;2022-09-09T05:08:07;96544.13;;;12.84;100.00
47556;BME280;33291;46.222;26.460;2022-09-09T05:10:34;96545.31;;;12.89;100.00
47556;BME280;33291;46.222;26.460;2022-09-09T05:13:02;96533.56;;;12.93;100.00
47556;BME280;33291;46.222;26.460;2022-09-09T05:15:27;96537.06;;;13.02;100.00
47556;BME280;33291;46.222;26.460;2022-09-09T05:18:00;96534.69;;;13.09;100.00
47556;BME280;33291;46.222;26.460;2022-09-09T05:20:26;96539.75;;;13.10;100.00
47556;BME280;33291;46.222;26.460;2022-09-09T05:22:53;96534.38;;;13.12;100.00
47556;BME280;33291;46.222;26.460;2022-09-09T05:25:19;96532.56;;;13.12;100.00
47556;BME280;33291;46.222;26.460;2022-09-09T05:27:45;96527.22;;;13.22;100.00
47556;BME280;33291;46.222;26.460;2022-09-09T05:30:11;96523.00;;;13.29;100.00
47556;BME280;33291;46.222;26.460;2022-09-09T05:32:36;96526.53;;;13.38;100.00
47556;BME280;33291;46.222;26.460;2022-09-09T05:35:02;96527.03;;;13.42;100.00
47556;BME280;33291;46.222;26.460;2022-09-09T05:37:28;96519.03;;;13.43;100.00
47556;BME280;33291;46.222;26.460;2022-09-09T05:39:55;96517.28;;;13.52;100.00
47556;BME280;33291;46.222;26.460;2022-09-09T05:42:21;96516.34;;;13.61;100.00
47556;BME280;33291;46.222;26.460;2022-09-09T05:44:46;96524.25;;;13.70;100.00
47556;BME280;33291;46.222;26.460;2022-09-09T05:47:12;96522.59;;;13.77;100.00
47556;BME280;33291;46.222;26.460;2022-09-09T05:49:37;96522.66;;;13.85;100.00
47556;BME280;33291;46.222;26.460;2022-09-09T05:52:03;96524.31;;;13.94;100.00
47556;BME280;33291;46.222;26.460;2022-09-09T05:54:29;96518.44;;;14.00;100.00
47556;BME280;33291;46.222;26.460;2022-09-09T05:56:55;96517.31;;;14.11;100.00
47556;BME280;33291;46.222;26.460;2022-09-09T05:59:20;96522.06;;;14.24;100.00
47556;BME280;33291;46.222;26.460;2022-09-09T06:01:48;96512.09;;;14.36;100.00
47556;BME280;33291;46.222;26.460;2022-09-09T06:04:13;96516.03;;;14.48;100.00
47556;BME280;33291;46.222;26.460;2022-09-09T06:06:39;96518.19;;;14.53;100.00
47556;BME280;33291;46.222;26.460;2022-09-09T06:09:08;96514.31;;;14.65;100.00
47556;BME280;33291;46.222;26.460;2022-09-09T06:11:37;96516.59;;;14.77;100.00
47556;BME280;33291;46.222;26.460;2022-09-09T06:14:03;96496.41;;;14.77;100.00
47556;BME280;33291;46.222;26.460;2022-09-09T06:16:30;96492.16;;;14.92;100.00
47556;BME280;33291;46.222;26.460;2022-09-09T06:18:58;96493.44;;;15.05;100.00
47556;BME280;33291;46.222;26.460;2022-09-09T06:21:31;96485.56;;;15.13;100.00
47556;BME280;33291;46.222;26.460;2022-09-09T06:23:58;96490.28;;;15.26;100.00
47556;BME280;33291;46.222;26.460;2022-09-09T06:26:25;96493.50;;;15.36;100.00
47556;BME280;33291;46.222;26.460;2022-09-09T06:28:53;96488.25;;;15.44;100.00
47556;BME280;33291;46.222;26.460;2022-09-09T06:31:23;96492.63;;;15.60;100.00
47556;BME280;33291;46.222;26.460;2022-09-09T06:33:50;96483.03;;;15.76;100.00
47556;BME280;33291;46.222;26.460;2022-09-09T06:36:18;96493.13;;;15.95;100.00
47556;BME280;33291;46.222;26.460;2022-09-09T06:38:45;96488.19;;;16.01;100.00
47556;BME280;33291;46.222;26.460;2022-09-09T06:41:12;96500.22;;;16.18;100.00
47556;BME280;33291;46.222;26.460;2022-09-09T06:43:38;96486.53;;;16.31;100.00
47556;BME280;33291;46.222;26.460;2022-09-09T06:48:35;96495.50;;;16.60;98.75
47556;BME280;33291;46.222;26.460;2022-09-09T06:51:05;96503.59;;;16.73;98.00
47556;BME280;33291;46.222;26.460;2022-09-09T06:53:35;96502.56;;;16.82;98.12
47556;BME280;33291;46.222;26.460;2022-09-09T06:58:45;96513.88;;;17.06;98.24
47556;BME280;33291;46.222;26.460;2022-09-09T07:01:19;96492.75;;;17.14;97.57
47556;BME280;33291;46.222;26.460;2022-09-09T07:03:47;96501.28;;;17.31;98.16
47556;BME280;33291;46.222;26.460;2022-09-09T07:06:31;96497.75;;;17.39;98.24
47556;BME280;33291;46.222;26.460;2022-09-09T07:08:59;96485.94;;;17.50;98.77
47556;BME280;33291;46.222;26.460;2022-09-09T07:11:27;96486.31;;;17.62;98.05
47556;BME280;33291;46.222;26.460;2022-09-09T07:13:54;96474.84;;;17.69;98.24
47556;BME280;33291;46.222;26.460;2022-09-09T07:16:21;96479.81;;;17.79;98.41
47556;BME280;33291;46.222;26.460;2022-09-09T07:18:50;96483.34;;;17.86;99.20
47556;BME280;33291;46.222;26.460;2022-09-09T07:21:16;96468.53;;;17.85;98.75
47556;BME280;33291;46.222;26.460;2022-09-09T07:23:42;96456.47;;;17.91;98.88
47556;BME280;33291;46.222;26.460;2022-09-09T07:26:13;96468.50;;;18.15;98.36
47556;BME280;33291;46.222;26.460;2022-09-09T07:28:39;96478.59;;;18.33;98.24
47556;BME280;33291;46.222;26.460;2022-09-09T07:31:06;96474.41;;;18.39;98.96
47556;BME280;33291;46.222;26.460;2022-09-09T07:33:34;96484.81;;;18.47;99.24
47556;BME280;33291;46.222;26.460;2022-09-09T07:36:08;96468.66;;;18.57;98.37
47556;BME280;33291;46.222;26.460;2022-09-09T07:38:57;96474.88;;;18.71;99.44
47556;BME280;33291;46.222;26.460;2022-09-09T07:41:33;96474.16;;;18.83;97.92
47556;BME280;33291;46.222;26.460;2022-09-09T07:44:03;96454.25;;;18.81;97.09
47556;BME280;33291;46.222;26.460;2022-09-09T07:46:29;96473.56;;;19.10;97.06
47556;BME280;33291;46.222;26.460;2022-09-09T07:48:56;96470.41;;;19.21;96.22
47556;BME280;33291;46.222;26.460;2022-09-09T07:53:47;96472.78;;;19.51;95.28
47556;BME280;33291;46.222;26.460;2022-09-09T07:56:15;96473.22;;;19.61;95.02
47556;BME280;33291;46.222;26.460;2022-09-09T07:58:45;96465.16;;;19.69;95.31
47556;BME280;33291;46.222;26.460;2022-09-09T08:01:17;96461.34;;;19.79;95.70
47556;BME280;33291;46.222;26.460;2022-09-09T08:03:44;96463.19;;;19.85;94.89
47556;BME280;33291;46.222;26.460;2022-09-09T08:06:11;96467.69;;;19.98;94.44
47556;BME280;33291;46.222;26.460;2022-09-09T08:08:38;96464.66;;;20.01;94.47
47556;BME280;33291;46.222;26.460;2022-09-09T08:11:11;96470.78;;;20.08;94.75
47556;BME280;33291;46.222;26.460;2022-09-09T08:13:38;96467.53;;;20.13;94.92
47556;BME280;33291;46.222;26.460;2022-09-09T08:16:13;96466.13;;;20.17;95.92
47556;BME280;33291;46.222;26.460;2022-09-09T08:18:40;96459.03;;;20.24;95.71
47556;BME280;33291;46.222;26.460;2022-09-09T08:23:37;96464.72;;;20.34;96.25
47556;BME280;33291;46.222;26.460;2022-09-09T08:26:05;96443.97;;;20.31;96.34
47556;BME280;33291;46.222;26.460;2022-09-09T08:28:31;96458.63;;;20.40;96.16
47556;BME280;33291;46.222;26.460;2022-09-09T08:31:14;96458.22;;;20.44;95.45
47556;BME280;33291;46.222;26.460;2022-09-09T08:33:41;96465.97;;;20.52;94.53
47556;BME280;33291;46.222;26.460;2022-09-09T08:36:10;96459.06;;;20.51;94.48
47556;BME280;33291;46.222;26.460;2022-09-09T08:38:37;96467.81;;;20.58;94.35
47556;BME280;33291;46.222;26.460;2022-09-09T08:41:22;96477.78;;;20.63;94.00
47556;BME280;33291;46.222;26.460;2022-09-09T08:44:00;96472.94;;;20.66;94.23
47556;BME280;33291;46.222;26.460;2022-09-09T08:46:51;96485.13;;;20.74;94.02
47556;BME280;33291;46.222;26.460;2022-09-09T08:52:03;96479.25;;;20.85;92.64
47556;BME280;33291;46.222;26.460;2022-09-09T08:54:35;96472.53;;;20.83;92.29
47556;BME280;33291;46.222;26.460;2022-09-09T08:57:03;96480.69;;;20.88;92.79
47556;BME280;33291;46.222;26.460;2022-09-09T08:59:34;96476.00;;;20.90;92.79
47556;BME280;33291;46.222;26.460;2022-09-09T09:07:28;96470.91;;;20.82;92.57
47556;BME280;33291;46.222;26.460;2022-09-09T09:12:47;96478.03;;;20.74;91.28
47556;BME280;33291;46.222;26.460;2022-09-09T09:15:36;96475.16;;;20.69;91.95
47556;BME280;33291;46.222;26.460;2022-09-09T09:18:04;96484.34;;;20.67;92.67
47556;BME280;33291;46.222;26.460;2022-09-09T09:23:56;96486.75;;;20.62;92.00
47556;BME280;33291;46.222;26.460;2022-09-09T09:26:34;96491.22;;;20.61;92.35
47556;BME280;33291;46.222;26.460;2022-09-09T09:29:09;96482.69;;;20.59;91.91
47556;BME280;33291;46.222;26.460;2022-09-09T09:31:37;96486.34;;;20.58;93.21
47556;BME280;33291;46.222;26.460;2022-09-09T09:34:02;96483.91;;;20.56;93.61
47556;BME280;33291;46.222;26.460;2022-09-09T09:36:43;96475.56;;;20.53;93.90
47556;BME280;33291;46.222;26.460;2022-09-09T09:39:23;96469.63;;;20.51;94.21
47556;BME280;33291;46.222;26.460;2022-09-09T09:41:49;96475.34;;;20.54;94.05
47556;BME280;33291;46.222;26.460;2022-09-09T09:46:49;96473.31;;;20.56;93.36
47556;BME280;33291;46.222;26.460;2022-09-09T09:49:15;96474.53;;;20.54;93.23
47556;BME280;33291;46.222;26.460;2022-09-09T09:51:41;96478.59;;;20.50;92.94
47556;BME280;33291;46.222;26.460;2022-09-09T09:54:27;96491.44;;;20.53;92.74
47556;BME280;33291;46.222;26.460;2022-09-09T09:56:54;96491.22;;;20.48;93.80
47556;BME280;33291;46.222;26.460;2022-09-09T09:59:38;96494.88;;;20.47;93.86
47556;BME280;33291;46.222;26.460;2022-09-09T10:02:22;96495.06;;;20.45;93.47
47556;BME280;33291;46.222;26.460;2022-09-09T10:05:12;96492.81;;;20.35;93.18
47556;BME280;33291;46.222;26.460;2022-09-09T10:07:38;96494.47;;;20.36;93.29
47556;BME280;33291;46.222;26.460;2022-09-09T10:10:04;96494.88;;;20.33;92.46
47556;BME280;33291;46.222;26.460;2022-09-09T10:31:52;96504.50;;;19.99;99.65
47556;BME280;33291;46.222;26.460;2022-09-09T10:37:30;96506.16;;;20.00;99.80
47556;BME280;33291;46.222;26.460;2022-09-09T10:42:46;96502.50;;;20.01;100.00
47556;BME280;33291;46.222;26.460;2022-09-09T10:51:36;96501.94;;;20.19;99.48
47556;BME280;33291;46.222;26.460;2022-09-09T10:57:08;96483.44;;;20.26;99.12
47556;BME280;33291;46.222;26.460;2022-09-09T10:59:46;96500.56;;;20.37;98.47
47556;BME280;33291;46.222;26.460;2022-09-09T11:02:22;96505.03;;;20.43;98.08
47556;BME280;33291;46.222;26.460;2022-09-09T11:04:57;96497.72;;;20.45;97.01
47556;BME280;33291;46.222;26.460;2022-09-09T11:07:37;96511.56;;;20.54;95.49
47556;BME280;33291;46.222;26.460;2022-09-09T11:10:13;96505.88;;;20.57;94.57
47556;BME280;33291;46.222;26.460;2022-09-09T11:12:43;96506.69;;;20.64;94.33
47556;BME280;33291;46.222;26.460;2022-09-09T11:15:35;96505.31;;;20.75;94.55
47556;BME280;33291;46.222;26.460;2022-09-09T11:18:04;96504.50;;;20.81;94.01
47556;BME280;33291;46.222;26.460;2022-09-09T11:20:31;96499.22;;;20.88;93.44
47556;BME280;33291;46.222;26.460;2022-09-09T11:23:04;96504.72;;;20.93;92.51
47556;BME280;33291;46.222;26.460;2022-09-09T11:25:36;96485.97;;;20.94;91.99
47556;BME280;33291;46.222;26.460;2022-09-09T11:30:50;96494.50;;;21.17;90.04
47556;BME280;33291;46.222;26.460;2022-09-09T11:33:48;96485.13;;;21.21;89.03
47556;BME280;33291;46.222;26.460;2022-09-09T11:36:35;96486.94;;;21.34;88.93
47556;BME280;33291;46.222;26.460;2022-09-09T11:39:43;96490.78;;;21.44;86.86
47556;BME280;33291;46.222;26.460;2022-09-09T11:44:39;96479.56;;;21.56;85.55
47556;BME280;33291;46.222;26.460;2022-09-09T11:47:26;96472.56;;;21.68;83.52
47556;BME280;33291;46.222;26.460;2022-09-09T11:49:55;96486.22;;;21.78;83.96
47556;BME280;33291;46.222;26.460;2022-09-09T11:52:43;96477.41;;;21.85;82.86
47556;BME280;33291;46.222;26.460;2022-09-09T11:55:30;96480.06;;;21.85;82.38
47556;BME280;33291;46.222;26.460;2022-09-09T11:58:18;96487.81;;;21.86;81.93
47556;BME280;33291;46.222;26.460;2022-09-09T12:00:48;96480.91;;;21.85;82.15
47556;BME280;33291;46.222;26.460;2022-09-09T12:06:30;96457.13;;;21.58;84.56
47556;BME280;33291;46.222;26.460;2022-09-09T12:11:37;96478.13;;;21.60;88.53
47556;BME280;33291;46.222;26.460;2022-09-09T12:14:03;96469.38;;;21.53;89.43
47556;BME280;33291;46.222;26.460;2022-09-09T12:16:37;96466.94;;;21.51;89.85
47556;BME280;33291;46.222;26.460;2022-09-09T12:19:15;96476.91;;;21.56;89.94
47556;BME280;33291;46.222;26.460;2022-09-09T12:24:37;96468.56;;;21.52;91.48
47556;BME280;33291;46.222;26.460;2022-09-09T12:29:57;96468.38;;;21.47;91.73
47556;BME280;33291;46.222;26.460;2022-09-09T12:32:27;96465.28;;;21.43;92.34
47556;BME280;33291;46.222;26.460;2022-09-09T12:34:55;96471.00;;;21.40;93.01
47556;BME280;33291;46.222;26.460;2022-09-09T12:39:58;96473.91;;;21.32;94.69
47556;BME280;33291;46.222;26.460;2022-09-09T12:42:25;96467.38;;;21.28;95.06
47556;BME280;33291;46.222;26.460;2022-09-09T12:45:02;96465.16;;;21.25;96.32
47556;BME280;33291;46.222;26.460;2022-09-09T12:50:17;96466.38;;;21.16;98.16
47556;BME280;33291;46.222;26.460;2022-09-09T12:52:44;96467.81;;;21.11;98.23
47556;BME280;33291;46.222;26.460;2022-09-09T12:55:17;96460.06;;;21.10;99.25
47556;BME280;33291;46.222;26.460;2022-09-09T12:57:45;96469.28;;;21.07;100.00
47556;BME280;33291;46.222;26.460;2022-09-09T13:00:19;96467.22;;;21.03;100.00
47556;BME280;33291;46.222;26.460;2022-09-09T13:02:56;96472.72;;;21.01;100.00
47556;BME280;33291;46.222;26.460;2022-09-09T13:05:27;96470.47;;;20.98;100.00
47556;BME280;33291;46.222;26.460;2022-09-09T13:08:03;96475.16;;;20.96;100.00
47556;BME280;33291;46.222;26.460;2022-09-09T13:10:33;96472.75;;;20.88;100.00
47556;BME280;33291;46.222;26.460;2022-09-09T13:13:01;96477.41;;;20.86;100.00
47556;BME280;33291;46.222;26.460;2022-09-09T13:15:28;96471.31;;;20.79;100.00
47556;BME280;33291;46.222;26.460;2022-09-09T13:18:01;96469.47;;;20.72;100.00
47556;BME280;33291;46.222;26.460;2022-09-09T13:20:28;96475.81;;;20.71;99.38
47556;BME280;33291;46.222;26.460;2022-09-09T13:22:56;96457.03;;;20.53;99.19
47556;BME280;33291;46.222;26.460;2022-09-09T13:25:27;96477.00;;;20.62;98.94
47556;BME280;33291;46.222;26.460;2022-09-09T13:27:59;96476.56;;;20.58;99.04
47556;BME280;33291;46.222;26.460;2022-09-09T13:30:36;96486.16;;;20.53;99.31
47556;BME280;33291;46.222;26.460;2022-09-09T13:38:40;96493.41;;;20.37;100.00
47556;BME280;33291;46.222;26.460;2022-09-09T13:41:22;96507.44;;;20.31;100.00
47556;BME280;33291;46.222;26.460;2022-09-09T13:43:49;96513.78;;;20.30;100.00
47556;BME280;33291;46.222;26.460;2022-09-09T13:46:34;96520.66;;;20.24;100.00
47556;BME280;33291;46.222;26.460;2022-09-09T13:51:37;96530.56;;;20.02;100.00
47556;BME280;33291;46.222;26.460;2022-09-09T13:54:09;96524.84;;;19.99;100.00
47556;BME280;33291;46.222;26.460;2022-09-09T13:56:36;96525.88;;;19.98;100.00
47556;BME280;33291;46.222;26.460;2022-09-09T13:59:03;96531.16;;;19.98;100.00
47556;BME280;33291;46.222;26.460;2022-09-09T14:01:29;96522.19;;;19.92;100.00
47556;BME280;33291;46.222;26.460;2022-09-09T14:03:55;96522.19;;;19.92;100.00
47556;BME280;33291;46.222;26.460;2022-09-09T14:06:21;96525.66;;;19.93;100.00
47556;BME280;33291;46.222;26.460;2022-09-09T14:08:50;96525.84;;;19.91;100.00
47556;BME280;33291;46.222;26.460;2022-09-09T14:11:17;96516.28;;;19.90;100.00
47556;BME280;33291;46.222;26.460;2022-09-09T14:13:42;96518.31;;;19.88;100.00
47556;BME280;33291;46.222;26.460;2022-09-09T14:16:08;96516.66;;;19.80;100.00
47556;BME280;33291;46.222;26.460;2022-09-09T14:18:34;96517.91;;;19.84;100.00
47556;BME280;33291;46.222;26.460;2022-09-09T14:21:00;96524.59;;;19.80;100.00
47556;BME280;33291;46.222;26.460;2022-09-09T14:23:28;96526.59;;;19.78;100.00
47556;BME280;33291;46.222;26.460;2022-09-09T14:25:54;96525.16;;;19.76;100.00
47556;BME280;33291;46.222;26.460;2022-09-09T14:28:20;96524.91;;;19.70;100.00
47556;BME280;33291;46.222;26.460;2022-09-09T14:30:45;96532.03;;;19.70;100.00
47556;BME280;33291;46.222;26.460;2022-09-09T14:33:14;96516.75;;;19.65;100.00
47556;BME280;33291;46.222;26.460;2022-09-09T14:35:39;96525.28;;;19.67;100.00
47556;BME280;33291;46.222;26.460;2022-09-09T14:38:06;96518.16;;;19.61;100.00
47556;BME280;33291;46.222;26.460;2022-09-09T14:40:34;96530.34;;;19.62;100.00
47556;BME280;33291;46.222;26.460;2022-09-09T14:42:59;96536.41;;;19.56;100.00
47556;BME280;33291;46.222;26.460;2022-09-09T14:45:25;96527.06;;;19.53;100.00
47556;BME280;33291;46.222;26.460;2022-09-09T14:47:52;96532.97;;;19.56;100.00
47556;BME280;33291;46.222;26.460;2022-09-09T14:50:19;96542.91;;;19.53;100.00
47556;BME280;33291;46.222;26.460;2022-09-09T14:52:45;96540.44;;;19.52;100.00
47556;BME280;33291;46.222;26.460;2022-09-09T14:55:10;96537.19;;;19.50;100.00
47556;BME280;33291;46.222;26.460;2022-09-09T14:57:36;96536.56;;;19.48;100.00
47556;BME280;33291;46.222;26.460;2022-09-09T15:00:06;96537.34;;;19.42;100.00
47556;BME280;33291;46.222;26.460;2022-09-09T15:02:32;96534.28;;;19.38;100.00
47556;BME280;33291;46.222;26.460;2022-09-09T15:04:58;96533.84;;;19.34;100.00
47556;BME280;33291;46.222;26.460;2022-09-09T15:07:24;96534.44;;;19.30;100.00
47556;BME280;33291;46.222;26.460;2022-09-09T15:09:50;96530.94;;;19.23;100.00
47556;BME280;33291;46.222;26.460;2022-09-09T15:12:18;96533.97;;;19.20;100.00
47556;BME280;33291;46.222;26.460;2022-09-09T15:14:44;96538.41;;;19.19;100.00